sensor_id;sensor_type;location;lat;lon;timestamp;P1;durP1;ratioP1;P2;durP2;ratioP2
36137;SDS011;67787;50.074;21.904;2023-03-23T00:01:01;16.50;;;7.10;;
36137;SDS011;67787;50.074;21.904;2023-03-23T00:03:29;17.40;;;7.00;;
36137;SDS011;67787;50.074;21.904;2023-03-23T00:06:00;15.60;;;6.70;;
36137;SDS011;67787;50.074;21.904;2023-03-23T00:08:37;15.80;;;6.90;;
36137;SDS011;67787;50.074;21.904;2023-03-23T00:11:14;16.70;;;7.10;;
36137;SDS011;67787;50.074;21.904;2023-03-23T00:13:42;17.00;;;6.80;;
36137;SDS011;67787;50.074;21.904;2023-03-23T00:16:10;17.20;;;7.30;;
36137;SDS011;67787;50.074;21.904;2023-03-23T00:18:45;16.70;;;6.80;;
36137;SDS011;67787;50.074;21.904;2023-03-23T00:21:11;15.20;;;6.50;;
36137;SDS011;67787;50.074;21.904;2023-03-23T00:23:37;15.90;;;6.90;;
36137;SDS011;67787;50.074;21.904;2023-03-23T00:26:04;14.10;;;6.20;;
36137;SDS011;67787;50.074;21.904;2023-03-23T00:28:35;16.70;;;7.10;;
36137;SDS011;67787;50.074;21.904;2023-03-23T00:31:02;19.60;;;7.20;;
36137;SDS011;67787;50.074;21.904;2023-03-23T00:33:32;14.10;;;6.40;;
36137;SDS011;67787;50.074;21.904;2023-03-23T00:36:12;17.10;;;7.50;;
36137;SDS011;67787;50.074;21.904;2023-03-23T00:38:39;16.50;;;7.10;;
36137;SDS011;67787;50.074;21.904;2023-03-23T00:41:10;17.60;;;6.80;;
36137;SDS011;67787;50.074;21.904;2023-03-23T00:43:36;14.30;;;6.70;;
36137;SDS011;67787;50.074;21.904;2023-03-23T00:46:04;16.10;;;7.20;;
36137;SDS011;67787;50.074;21.904;2023-03-23T00:48:35;16.30;;;7.20;;
36137;SDS011;67787;50.074;21.904;2023-03-23T00:51:06;15.10;;;6.60;;
36137;SDS011;67787;50.074;21.904;2023-03-23T00:53:36;16.70;;;6.90;;
36137;SDS011;67787;50.074;21.904;2023-03-23T00:56:03;16.40;;;7.20;;
36137;SDS011;67787;50.074;21.904;2023-03-23T00:58:30;18.30;;;6.60;;
36137;SDS011;67787;50.074;21.904;2023-03-23T01:00:56;16.50;;;7.30;;
36137;SDS011;67787;50.074;21.904;2023-03-23T01:03:22;16.00;;;7.10;;
36137;SDS011;67787;50.074;21.904;2023-03-23T01:05:52;15.10;;;6.80;;
36137;SDS011;67787;50.074;21.904;2023-03-23T01:08:19;16.60;;;7.10;;
36137;SDS011;67787;50.074;21.904;2023-03-23T01:10:45;16.00;;;6.60;;
36137;SDS011;67787;50.074;21.904;2023-03-23T01:13:12;16.60;;;7.00;;
36137;SDS011;67787;50.074;21.904;2023-03-23T01:15:38;17.50;;;7.40;;
36137;SDS011;67787;50.074;21.904;2023-03-23T01:18:05;14.90;;;6.90;;
36137;SDS011;67787;50.074;21.904;2023-03-23T01:20:34;15.80;;;6.50;;
36137;SDS011;67787;50.074;21.904;2023-03-23T01:23:01;15.40;;;7.00;;
36137;SDS011;67787;50.074;21.904;2023-03-23T01:25:32;13.80;;;6.00;;
36137;SDS011;67787;50.074;21.904;2023-03-23T01:28:02;16.20;;;6.50;;
36137;SDS011;67787;50.074;21.904;2023-03-23T01:30:28;17.70;;;7.50;;
36137;SDS011;67787;50.074;21.904;2023-03-23T01:32:55;14.00;;;6.70;;
36137;SDS011;67787;50.074;21.904;2023-03-23T01:35:21;16.10;;;7.30;;
36137;SDS011;67787;50.074;21.904;2023-03-23T01:37:47;15.80;;;6.40;;
36137;SDS011;67787;50.074;21.904;2023-03-23T01:40:14;18.50;;;7.80;;
36137;SDS011;67787;50.074;21.904;2023-03-23T01:42:41;16.90;;;7.20;;
36137;SDS011;67787;50.074;21.904;2023-03-23T01:47:49;16.70;;;6.60;;
36137;SDS011;67787;50.074;21.904;2023-03-23T01:50:22;15.90;;;6.80;;
36137;SDS011;67787;50.074;21.904;2023-03-23T01:52:51;14.80;;;6.50;;
36137;SDS011;67787;50.074;21.904;2023-03-23T01:55:22;15.80;;;7.00;;
36137;SDS011;67787;50.074;21.904;2023-03-23T01:57:53;16.60;;;7.30;;
36137;SDS011;67787;50.074;21.904;2023-03-23T02:00:21;16.00;;;7.40;;
36137;SDS011;67787;50.074;21.904;2023-03-23T02:02:48;17.00;;;7.10;;
36137;SDS011;67787;50.074;21.904;2023-03-23T02:05:22;13.90;;;5.70;;
36137;SDS011;67787;50.074;21.904;2023-03-23T02:07:54;14.90;;;6.70;;
36137;SDS011;67787;50.074;21.904;2023-03-23T02:10:25;15.00;;;7.00;;
36137;SDS011;67787;50.074;21.904;2023-03-23T02:12:51;16.50;;;6.50;;
36137;SDS011;67787;50.074;21.904;2023-03-23T02:15:17;17.60;;;7.60;;
36137;SDS011;67787;50.074;21.904;2023-03-23T02:17:59;16.50;;;7.00;;
36137;SDS011;67787;50.074;21.904;2023-03-23T02:25:58;13.90;;;6.40;;
36137;SDS011;67787;50.074;21.904;2023-03-23T02:34:39;16.20;;;7.30;;
36137;SDS011;67787;50.074;21.904;2023-03-23T02:37:11;14.40;;;6.30;;
36137;SDS011;67787;50.074;21.904;2023-03-23T02:39:54;17.60;;;7.50;;
36137;SDS011;67787;50.074;21.904;2023-03-23T02:42:29;15.20;;;6.40;;
36137;SDS011;67787;50.074;21.904;2023-03-23T02:44:59;16.00;;;7.20;;
36137;SDS011;67787;50.074;21.904;2023-03-23T02:47:29;17.60;;;7.30;;
36137;SDS011;67787;50.074;21.904;2023-03-23T02:49:57;16.60;;;7.40;;
36137;SDS011;67787;50.074;21.904;2023-03-23T02:52:26;19.50;;;8.20;;
36137;SDS011;67787;50.074;21.904;2023-03-23T02:54:57;15.10;;;6.70;;
36137;SDS011;67787;50.074;21.904;2023-03-23T02:57:25;17.00;;;7.20;;
36137;SDS011;67787;50.074;21.904;2023-03-23T02:59:53;16.10;;;6.60;;
36137;SDS011;67787;50.074;21.904;2023-03-23T03:04:56;15.80;;;7.30;;
36137;SDS011;67787;50.074;21.904;2023-03-23T03:07:30;16.00;;;7.40;;
36137;SDS011;67787;50.074;21.904;2023-03-23T03:10:19;17.50;;;6.80;;
36137;SDS011;67787;50.074;21.904;2023-03-23T03:17:52;16.70;;;6.60;;
36137;SDS011;67787;50.074;21.904;2023-03-23T03:20:26;17.40;;;7.10;;
36137;SDS011;67787;50.074;21.904;2023-03-23T03:22:55;14.20;;;6.70;;
36137;SDS011;67787;50.074;21.904;2023-03-23T03:25:22;15.20;;;7.00;;
36137;SDS011;67787;50.074;21.904;2023-03-23T03:27:49;18.20;;;7.40;;
36137;SDS011;67787;50.074;21.904;2023-03-23T03:30:19;16.80;;;7.20;;
36137;SDS011;67787;50.074;21.904;2023-03-23T03:32:51;19.70;;;7.30;;
36137;SDS011;67787;50.074;21.904;2023-03-23T03:35:20;18.10;;;7.90;;
36137;SDS011;67787;50.074;21.904;2023-03-23T03:37:48;16.90;;;7.50;;
36137;SDS011;67787;50.074;21.904;2023-03-23T03:40:17;14.20;;;6.50;;
36137;SDS011;67787;50.074;21.904;2023-03-23T03:42:45;17.40;;;7.50;;
36137;SDS011;67787;50.074;21.904;2023-03-23T03:45:14;17.50;;;7.40;;
36137;SDS011;67787;50.074;21.904;2023-03-23T03:47:42;16.60;;;6.80;;
36137;SDS011;67787;50.074;21.904;2023-03-23T03:50:08;14.80;;;6.70;;
36137;SDS011;67787;50.074;21.904;2023-03-23T03:52:35;15.70;;;7.20;;
36137;SDS011;67787;50.074;21.904;2023-03-23T03:55:01;17.50;;;7.40;;
36137;SDS011;67787;50.074;21.904;2023-03-23T03:57:28;16.30;;;7.30;;
36137;SDS011;67787;50.074;21.904;2023-03-23T03:59:54;17.40;;;7.80;;
36137;SDS011;67787;50.074;21.904;2023-03-23T04:02:20;14.60;;;6.30;;
36137;SDS011;67787;50.074;21.904;2023-03-23T04:04:47;17.20;;;7.10;;
36137;SDS011;67787;50.074;21.904;2023-03-23T04:07:14;16.40;;;6.30;;
36137;SDS011;67787;50.074;21.904;2023-03-23T04:09:51;17.80;;;7.90;;
36137;SDS011;67787;50.074;21.904;2023-03-23T04:12:17;17.00;;;7.10;;
36137;SDS011;67787;50.074;21.904;2023-03-23T04:14:43;16.40;;;7.70;;
36137;SDS011;67787;50.074;21.904;2023-03-23T04:17:09;16.30;;;7.50;;
36137;SDS011;67787;50.074;21.904;2023-03-23T04:19:36;17.40;;;7.10;;
36137;SDS011;67787;50.074;21.904;2023-03-23T04:22:03;14.10;;;6.50;;
36137;SDS011;67787;50.074;21.904;2023-03-23T04:24:30;15.50;;;7.00;;
36137;SDS011;67787;50.074;21.904;2023-03-23T04:26:59;16.90;;;7.30;;
36137;SDS011;67787;50.074;21.904;2023-03-23T04:29:25;18.30;;;7.00;;
36137;SDS011;67787;50.074;21.904;2023-03-23T04:31:52;16.60;;;7.20;;
36137;SDS011;67787;50.074;21.904;2023-03-23T04:34:18;15.90;;;7.30;;
36137;SDS011;67787;50.074;21.904;2023-03-23T04:36:44;16.10;;;7.10;;
36137;SDS011;67787;50.074;21.904;2023-03-23T04:39:12;18.80;;;7.80;;
36137;SDS011;67787;50.074;21.904;2023-03-23T04:41:39;15.30;;;7.00;;
36137;SDS011;67787;50.074;21.904;2023-03-23T04:44:06;17.60;;;7.60;;
36137;SDS011;67787;50.074;21.904;2023-03-23T04:46:32;17.80;;;6.90;;
36137;SDS011;67787;50.074;21.904;2023-03-23T04:48:59;14.60;;;6.60;;
36137;SDS011;67787;50.074;21.904;2023-03-23T04:51:26;18.00;;;7.80;;
36137;SDS011;67787;50.074;21.904;2023-03-23T04:53:54;16.50;;;7.20;;
36137;SDS011;67787;50.074;21.904;2023-03-23T04:56:21;18.60;;;7.30;;
36137;SDS011;67787;50.074;21.904;2023-03-23T04:58:47;15.30;;;6.90;;
36137;SDS011;67787;50.074;21.904;2023-03-23T05:01:13;15.60;;;6.90;;
36137;SDS011;67787;50.074;21.904;2023-03-23T05:03:40;14.90;;;7.00;;
36137;SDS011;67787;50.074;21.904;2023-03-23T05:06:07;15.30;;;6.60;;
36137;SDS011;67787;50.074;21.904;2023-03-23T05:08:33;17.00;;;7.40;;
36137;SDS011;67787;50.074;21.904;2023-03-23T05:10:59;16.00;;;6.90;;
36137;SDS011;67787;50.074;21.904;2023-03-23T05:13:29;16.00;;;6.90;;
36137;SDS011;67787;50.074;21.904;2023-03-23T05:15:55;16.70;;;7.20;;
36137;SDS011;67787;50.074;21.904;2023-03-23T05:18:21;14.80;;;6.80;;
36137;SDS011;67787;50.074;21.904;2023-03-23T05:20:47;15.00;;;7.10;;
36137;SDS011;67787;50.074;21.904;2023-03-23T05:23:14;15.50;;;6.70;;
36137;SDS011;67787;50.074;21.904;2023-03-23T05:25:40;17.80;;;7.30;;
36137;SDS011;67787;50.074;21.904;2023-03-23T05:28:07;16.50;;;7.20;;
36137;SDS011;67787;50.074;21.904;2023-03-23T05:30:36;15.40;;;6.60;;
36137;SDS011;67787;50.074;21.904;2023-03-23T05:33:04;17.90;;;7.60;;
36137;SDS011;67787;50.074;21.904;2023-03-23T05:35:30;15.90;;;7.00;;
36137;SDS011;67787;50.074;21.904;2023-03-23T05:37:57;15.40;;;6.80;;
36137;SDS011;67787;50.074;21.904;2023-03-23T05:40:23;16.10;;;6.60;;
36137;SDS011;67787;50.074;21.904;2023-03-23T05:42:51;16.00;;;6.90;;
36137;SDS011;67787;50.074;21.904;2023-03-23T05:45:17;16.90;;;7.30;;
36137;SDS011;67787;50.074;21.904;2023-03-23T05:47:44;15.50;;;7.30;;
36137;SDS011;67787;50.074;21.904;2023-03-23T05:50:11;18.60;;;7.70;;
36137;SDS011;67787;50.074;21.904;2023-03-23T05:52:38;13.80;;;6.60;;
36137;SDS011;67787;50.074;21.904;2023-03-23T05:55:05;16.10;;;7.30;;
36137;SDS011;67787;50.074;21.904;2023-03-23T05:57:33;15.40;;;7.00;;
36137;SDS011;67787;50.074;21.904;2023-03-23T06:00:00;15.80;;;6.70;;
36137;SDS011;67787;50.074;21.904;2023-03-23T06:02:30;14.80;;;6.30;;
36137;SDS011;67787;50.074;21.904;2023-03-23T06:04:56;19.10;;;7.10;;
36137;SDS011;67787;50.074;21.904;2023-03-23T06:07:24;14.00;;;6.50;;
36137;SDS011;67787;50.074;21.904;2023-03-23T06:09:51;16.20;;;7.20;;
36137;SDS011;67787;50.074;21.904;2023-03-23T06:12:18;18.50;;;7.70;;
36137;SDS011;67787;50.074;21.904;2023-03-23T06:14:48;20.30;;;7.90;;
36137;SDS011;67787;50.074;21.904;2023-03-23T06:17:14;16.00;;;7.10;;
36137;SDS011;67787;50.074;21.904;2023-03-23T06:19:43;15.80;;;7.40;;
36137;SDS011;67787;50.074;21.904;2023-03-23T06:22:11;12.80;;;6.30;;
36137;SDS011;67787;50.074;21.904;2023-03-23T06:24:37;15.70;;;7.10;;
36137;SDS011;67787;50.074;21.904;2023-03-23T06:27:04;15.20;;;6.70;;
36137;SDS011;67787;50.074;21.904;2023-03-23T06:29:30;18.00;;;7.60;;
36137;SDS011;67787;50.074;21.904;2023-03-23T06:31:57;17.50;;;7.40;;
36137;SDS011;67787;50.074;21.904;2023-03-23T06:34:26;17.20;;;7.30;;
36137;SDS011;67787;50.074;21.904;2023-03-23T06:36:53;16.60;;;7.20;;
36137;SDS011;67787;50.074;21.904;2023-03-23T06:39:19;16.70;;;7.80;;
36137;SDS011;67787;50.074;21.904;2023-03-23T06:41:45;16.30;;;7.10;;
36137;SDS011;67787;50.074;21.904;2023-03-23T06:44:11;14.50;;;6.80;;
36137;SDS011;67787;50.074;21.904;2023-03-23T06:46:39;17.90;;;7.10;;
36137;SDS011;67787;50.074;21.904;2023-03-23T06:49:07;16.90;;;7.40;;
36137;SDS011;67787;50.074;21.904;2023-03-23T06:51:33;16.00;;;6.50;;
36137;SDS011;67787;50.074;21.904;2023-03-23T06:54:19;16.50;;;6.90;;
36137;SDS011;67787;50.074;21.904;2023-03-23T06:56:45;16.20;;;6.50;;
36137;SDS011;67787;50.074;21.904;2023-03-23T06:59:11;15.20;;;7.00;;
36137;SDS011;67787;50.074;21.904;2023-03-23T07:01:38;12.90;;;6.10;;
36137;SDS011;67787;50.074;21.904;2023-03-23T07:04:04;16.60;;;7.20;;
36137;SDS011;67787;50.074;21.904;2023-03-23T07:06:31;19.50;;;7.50;;
36137;SDS011;67787;50.074;21.904;2023-03-23T07:08:57;15.50;;;6.70;;
36137;SDS011;67787;50.074;21.904;2023-03-23T07:11:24;15.30;;;6.40;;
36137;SDS011;67787;50.074;21.904;2023-03-23T07:13:50;14.80;;;7.00;;
36137;SDS011;67787;50.074;21.904;2023-03-23T07:16:16;14.10;;;6.70;;
36137;SDS011;67787;50.074;21.904;2023-03-23T07:18:43;14.20;;;6.80;;
36137;SDS011;67787;50.074;21.904;2023-03-23T07:21:09;17.00;;;6.80;;
36137;SDS011;67787;50.074;21.904;2023-03-23T07:23:35;16.20;;;6.80;;
36137;SDS011;67787;50.074;21.904;2023-03-23T07:26:02;16.20;;;6.70;;
36137;SDS011;67787;50.074;21.904;2023-03-23T07:28:29;14.90;;;6.70;;
36137;SDS011;67787;50.074;21.904;2023-03-23T07:30:55;14.20;;;6.80;;
36137;SDS011;67787;50.074;21.904;2023-03-23T07:33:21;16.10;;;7.20;;
36137;SDS011;67787;50.074;21.904;2023-03-23T07:35:47;16.30;;;6.80;;
36137;SDS011;67787;50.074;21.904;2023-03-23T07:38:13;16.50;;;6.80;;
36137;SDS011;67787;50.074;21.904;2023-03-23T07:40:40;14.70;;;6.40;;
36137;SDS011;67787;50.074;21.904;2023-03-23T07:43:07;16.20;;;6.40;;
36137;SDS011;67787;50.074;21.904;2023-03-23T07:45:33;16.40;;;7.00;;
36137;SDS011;67787;50.074;21.904;2023-03-23T07:47:59;15.50;;;6.90;;
36137;SDS011;67787;50.074;21.904;2023-03-23T07:50:26;16.70;;;7.10;;
36137;SDS011;67787;50.074;21.904;2023-03-23T07:52:55;12.60;;;5.70;;
36137;SDS011;67787;50.074;21.904;2023-03-23T07:55:23;15.80;;;6.60;;
36137;SDS011;67787;50.074;21.904;2023-03-23T07:57:51;13.90;;;6.40;;
36137;SDS011;67787;50.074;21.904;2023-03-23T08:00:19;13.70;;;6.80;;
36137;SDS011;67787;50.074;21.904;2023-03-23T08:02:51;16.30;;;6.80;;
36137;SDS011;67787;50.074;21.904;2023-03-23T08:05:19;14.90;;;6.50;;
36137;SDS011;67787;50.074;21.904;2023-03-23T08:07:46;15.50;;;6.80;;
36137;SDS011;67787;50.074;21.904;2023-03-23T08:10:13;14.30;;;6.40;;
36137;SDS011;67787;50.074;21.904;2023-03-23T08:12:41;14.30;;;6.50;;
36137;SDS011;67787;50.074;21.904;2023-03-23T08:15:09;16.20;;;7.00;;
36137;SDS011;67787;50.074;21.904;2023-03-23T08:17:38;16.40;;;7.60;;
36137;SDS011;67787;50.074;21.904;2023-03-23T08:20:06;16.80;;;7.30;;
36137;SDS011;67787;50.074;21.904;2023-03-23T08:22:36;16.00;;;6.90;;
36137;SDS011;67787;50.074;21.904;2023-03-23T08:25:04;16.40;;;7.10;;
36137;SDS011;67787;50.074;21.904;2023-03-23T08:27:33;16.60;;;7.10;;
36137;SDS011;67787;50.074;21.904;2023-03-23T08:29:59;21.20;;;7.70;;
36137;SDS011;67787;50.074;21.904;2023-03-23T08:32:25;16.80;;;7.10;;
36137;SDS011;67787;50.074;21.904;2023-03-23T08:34:52;17.00;;;7.30;;
36137;SDS011;67787;50.074;21.904;2023-03-23T08:37:18;15.50;;;6.90;;
36137;SDS011;67787;50.074;21.904;2023-03-23T08:39:45;15.00;;;6.70;;
36137;SDS011;67787;50.074;21.904;2023-03-23T08:42:11;15.80;;;6.90;;
36137;SDS011;67787;50.074;21.904;2023-03-23T08:44:37;17.30;;;6.80;;
36137;SDS011;67787;50.074;21.904;2023-03-23T08:47:03;15.10;;;6.00;;
36137;SDS011;67787;50.074;21.904;2023-03-23T08:49:31;11.80;;;5.90;;
36137;SDS011;67787;50.074;21.904;2023-03-23T08:52:00;13.80;;;6.00;;
36137;SDS011;67787;50.074;21.904;2023-03-23T08:54:27;13.80;;;6.30;;
36137;SDS011;67787;50.074;21.904;2023-03-23T08:56:58;14.20;;;5.70;;
36137;SDS011;67787;50.074;21.904;2023-03-23T08:59:25;11.70;;;5.30;;
36137;SDS011;67787;50.074;21.904;2023-03-23T09:01:52;13.90;;;6.00;;
36137;SDS011;67787;50.074;21.904;2023-03-23T09:04:19;15.20;;;6.00;;
36137;SDS011;67787;50.074;21.904;2023-03-23T09:06:45;15.50;;;5.90;;
36137;SDS011;67787;50.074;21.904;2023-03-23T09:09:11;14.90;;;6.70;;
36137;SDS011;67787;50.074;21.904;2023-03-23T09:11:39;18.90;;;6.80;;
36137;SDS011;67787;50.074;21.904;2023-03-23T09:14:06;15.10;;;6.00;;
36137;SDS011;67787;50.074;21.904;2023-03-23T09:16:33;12.80;;;5.60;;
36137;SDS011;67787;50.074;21.904;2023-03-23T09:18:59;12.50;;;5.30;;
36137;SDS011;67787;50.074;21.904;2023-03-23T09:21:26;13.80;;;6.10;;
36137;SDS011;67787;50.074;21.904;2023-03-23T09:23:53;14.30;;;6.00;;
36137;SDS011;67787;50.074;21.904;2023-03-23T09:26:26;13.60;;;5.50;;
36137;SDS011;67787;50.074;21.904;2023-03-23T09:28:52;11.40;;;5.60;;
36137;SDS011;67787;50.074;21.904;2023-03-23T09:31:19;14.00;;;5.80;;
36137;SDS011;67787;50.074;21.904;2023-03-23T09:33:49;14.20;;;6.20;;
36137;SDS011;67787;50.074;21.904;2023-03-23T09:36:18;10.20;;;5.00;;
36137;SDS011;67787;50.074;21.904;2023-03-23T09:38:49;9.90;;;4.90;;
36137;SDS011;67787;50.074;21.904;2023-03-23T09:41:41;10.30;;;5.10;;
36137;SDS011;67787;50.074;21.904;2023-03-23T09:44:36;13.40;;;6.00;;
36137;SDS011;67787;50.074;21.904;2023-03-23T09:50:12;11.60;;;5.70;;
36137;SDS011;67787;50.074;21.904;2023-03-23T09:52:54;15.00;;;6.00;;
36137;SDS011;67787;50.074;21.904;2023-03-23T09:55:24;12.70;;;6.10;;
36137;SDS011;67787;50.074;21.904;2023-03-23T10:00:31;12.00;;;5.40;;
36137;SDS011;67787;50.074;21.904;2023-03-23T10:05:42;13.70;;;6.30;;
36137;SDS011;67787;50.074;21.904;2023-03-23T10:08:12;12.10;;;5.70;;
36137;SDS011;67787;50.074;21.904;2023-03-23T10:10:58;11.40;;;5.70;;
36137;SDS011;67787;50.074;21.904;2023-03-23T10:15:58;11.50;;;5.80;;
36137;SDS011;67787;50.074;21.904;2023-03-23T10:18:36;14.10;;;5.80;;
36137;SDS011;67787;50.074;21.904;2023-03-23T10:21:04;14.90;;;5.60;;
36137;SDS011;67787;50.074;21.904;2023-03-23T10:31:34;13.00;;;6.00;;
36137;SDS011;67787;50.074;21.904;2023-03-23T10:34:15;15.60;;;5.90;;
36137;SDS011;67787;50.074;21.904;2023-03-23T10:39:52;12.20;;;5.00;;
36137;SDS011;67787;50.074;21.904;2023-03-23T10:45:00;14.40;;;5.90;;
36137;SDS011;67787;50.074;21.904;2023-03-23T10:47:41;12.00;;;5.10;;
36137;SDS011;67787;50.074;21.904;2023-03-23T10:50:12;13.10;;;6.30;;
36137;SDS011;67787;50.074;21.904;2023-03-23T10:52:41;16.10;;;6.30;;
36137;SDS011;67787;50.074;21.904;2023-03-23T10:55:11;12.90;;;5.80;;
36137;SDS011;67787;50.074;21.904;2023-03-23T10:57:38;15.80;;;6.50;;
36137;SDS011;67787;50.074;21.904;2023-03-23T11:00:17;12.80;;;5.90;;
36137;SDS011;67787;50.074;21.904;2023-03-23T11:08:11;9.80;;;5.60;;
36137;SDS011;67787;50.074;21.904;2023-03-23T11:10:46;13.60;;;5.50;;
36137;SDS011;67787;50.074;21.904;2023-03-23T11:13:13;14.40;;;6.20;;
36137;SDS011;67787;50.074;21.904;2023-03-23T11:15:42;13.20;;;6.50;;
36137;SDS011;67787;50.074;21.904;2023-03-23T11:18:24;17.50;;;6.90;;
36137;SDS011;67787;50.074;21.904;2023-03-23T11:24:05;12.40;;;5.50;;
36137;SDS011;67787;50.074;21.904;2023-03-23T11:27:37;14.50;;;6.70;;
36137;SDS011;67787;50.074;21.904;2023-03-23T11:33:27;14.90;;;6.30;;
36137;SDS011;67787;50.074;21.904;2023-03-23T11:36:09;17.10;;;6.80;;
36137;SDS011;67787;50.074;21.904;2023-03-23T11:38:44;14.70;;;5.30;;
36137;SDS011;67787;50.074;21.904;2023-03-23T11:41:37;13.90;;;6.10;;
36137;SDS011;67787;50.074;21.904;2023-03-23T11:51:01;15.10;;;6.60;;
36137;SDS011;67787;50.074;21.904;2023-03-23T11:56:45;15.10;;;6.20;;
36137;SDS011;67787;50.074;21.904;2023-03-23T11:59:17;15.00;;;6.00;;
36137;SDS011;67787;50.074;21.904;2023-03-23T12:01:54;13.30;;;5.90;;
36137;SDS011;67787;50.074;21.904;2023-03-23T12:04:39;12.50;;;5.80;;
36137;SDS011;67787;50.074;21.904;2023-03-23T12:16:06;10.90;;;5.50;;
36137;SDS011;67787;50.074;21.904;2023-03-23T12:27:47;9.00;;;4.70;;
36137;SDS011;67787;50.074;21.904;2023-03-23T12:35:43;17.00;;;5.80;;
36137;SDS011;67787;50.074;21.904;2023-03-23T12:50:12;21.80;;;7.50;;
36137;SDS011;67787;50.074;21.904;2023-03-23T12:55:21;15.90;;;6.40;;
36137;SDS011;67787;50.074;21.904;2023-03-23T12:57:59;12.70;;;5.70;;
36137;SDS011;67787;50.074;21.904;2023-03-23T13:06:06;12.90;;;6.00;;
36137;SDS011;67787;50.074;21.904;2023-03-23T13:08:56;14.30;;;5.90;;
36137;SDS011;67787;50.074;21.904;2023-03-23T13:31:13;17.20;;;6.80;;
36137;SDS011;67787;50.074;21.904;2023-03-23T13:38:47;12.40;;;5.00;;
36137;SDS011;67787;50.074;21.904;2023-03-23T13:41:44;12.30;;;5.10;;
36137;SDS011;67787;50.074;21.904;2023-03-23T13:44:24;13.60;;;5.30;;
36137;SDS011;67787;50.074;21.904;2023-03-23T13:47:39;17.80;;;5.70;;
36137;SDS011;67787;50.074;21.904;2023-03-23T13:50:02;11.60;;;5.50;;
36137;SDS011;67787;50.074;21.904;2023-03-23T13:52:53;12.80;;;5.40;;
36137;SDS011;67787;50.074;21.904;2023-03-23T13:59:12;12.00;;;5.80;;
36137;SDS011;67787;50.074;21.904;2023-03-23T14:01:56;13.60;;;6.40;;
36137;SDS011;67787;50.074;21.904;2023-03-23T14:04:45;13.10;;;5.70;;
36137;SDS011;67787;50.074;21.904;2023-03-23T14:07:15;15.50;;;5.40;;
36137;SDS011;67787;50.074;21.904;2023-03-23T14:17:06;12.50;;;5.40;;
36137;SDS011;67787;50.074;21.904;2023-03-23T14:24:20;13.50;;;5.30;;
36137;SDS011;67787;50.074;21.904;2023-03-23T14:26:51;12.30;;;6.00;;
36137;SDS011;67787;50.074;21.904;2023-03-23T14:30:34;12.90;;;5.30;;
36137;SDS011;67787;50.074;21.904;2023-03-23T14:44:37;12.90;;;5.80;;
36137;SDS011;67787;50.074;21.904;2023-03-23T14:47:59;13.40;;;5.50;;
36137;SDS011;67787;50.074;21.904;2023-03-23T14:56:12;13.40;;;5.90;;
36137;SDS011;67787;50.074;21.904;2023-03-23T15:03:51;13.80;;;5.20;;
36137;SDS011;67787;50.074;21.904;2023-03-23T15:07:50;17.80;;;6.20;;
36137;SDS011;67787;50.074;21.904;2023-03-23T15:10:55;15.10;;;6.50;;
36137;SDS011;67787;50.074;21.904;2023-03-23T15:13:48;15.30;;;6.00;;
36137;SDS011;67787;50.074;21.904;2023-03-23T15:16:32;14.40;;;6.20;;
36137;SDS011;67787;50.074;21.904;2023-03-23T15:19:11;13.90;;;5.40;;
36137;SDS011;67787;50.074;21.904;2023-03-23T15:21:53;14.20;;;5.80;;
36137;SDS011;67787;50.074;21.904;2023-03-23T15:24:38;16.60;;;6.70;;
36137;SDS011;67787;50.074;21.904;2023-03-23T15:35:25;17.00;;;6.40;;
36137;SDS011;67787;50.074;21.904;2023-03-23T15:38:03;13.00;;;5.60;;
36137;SDS011;67787;50.074;21.904;2023-03-23T15:40:43;19.70;;;7.00;;
36137;SDS011;67787;50.074;21.904;2023-03-23T15:46:20;18.20;;;7.40;;
36137;SDS011;67787;50.074;21.904;2023-03-23T15:51:43;18.50;;;7.30;;
36137;SDS011;67787;50.074;21.904;2023-03-23T15:54:19;21.00;;;7.50;;
36137;SDS011;67787;50.074;21.904;2023-03-23T16:22:49;20.80;;;9.70;;
36137;SDS011;67787;50.074;21.904;2023-03-23T16:27:02;28.70;;;13.10;;
36137;SDS011;67787;50.074;21.904;2023-03-23T16:31:03;25.60;;;11.70;;
36137;SDS011;67787;50.074;21.904;2023-03-23T16:34:25;22.70;;;10.30;;
36137;SDS011;67787;50.074;21.904;2023-03-23T16:38:24;26.60;;;12.40;;
36137;SDS011;67787;50.074;21.904;2023-03-23T16:41:51;37.30;;;17.90;;
36137;SDS011;67787;50.074;21.904;2023-03-23T16:44:27;32.90;;;15.90;;
36137;SDS011;67787;50.074;21.904;2023-03-23T16:47:52;29.70;;;13.20;;
36137;SDS011;67787;50.074;21.904;2023-03-23T16:51:27;29.80;;;13.10;;
36137;SDS011;67787;50.074;21.904;2023-03-23T17:04:11;37.90;;;20.70;;
36137;SDS011;67787;50.074;21.904;2023-03-23T17:12:23;35.20;;;18.00;;
36137;SDS011;67787;50.074;21.904;2023-03-23T17:16:02;31.20;;;15.00;;
36137;SDS011;67787;50.074;21.904;2023-03-23T17:18:33;30.70;;;15.30;;
36137;SDS011;67787;50.074;21.904;2023-03-23T17:21:16;30.20;;;15.50;;
36137;SDS011;67787;50.074;21.904;2023-03-23T17:23:54;34.40;;;18.50;;
36137;SDS011;67787;50.074;21.904;2023-03-23T17:26:23;34.40;;;18.60;;
36137;SDS011;67787;50.074;21.904;2023-03-23T17:31:49;34.80;;;18.10;;
36137;SDS011;67787;50.074;21.904;2023-03-23T17:37:44;23.90;;;11.40;;
36137;SDS011;67787;50.074;21.904;2023-03-23T17:40:12;21.70;;;9.50;;
36137;SDS011;67787;50.074;21.904;2023-03-23T17:43:02;22.40;;;9.50;;
36137;SDS011;67787;50.074;21.904;2023-03-23T17:45:41;19.50;;;9.30;;
36137;SDS011;67787;50.074;21.904;2023-03-23T17:48:26;24.00;;;10.40;;
36137;SDS011;67787;50.074;21.904;2023-03-23T17:51:07;26.80;;;12.70;;
36137;SDS011;67787;50.074;21.904;2023-03-23T17:53:42;30.30;;;15.30;;
36137;SDS011;67787;50.074;21.904;2023-03-23T17:56:14;32.70;;;15.70;;
36137;SDS011;67787;50.074;21.904;2023-03-23T17:58:46;29.10;;;15.80;;
36137;SDS011;67787;50.074;21.904;2023-03-23T18:01:30;32.90;;;16.60;;
36137;SDS011;67787;50.074;21.904;2023-03-23T18:04:35;24.90;;;12.10;;
36137;SDS011;67787;50.074;21.904;2023-03-23T18:07:04;23.80;;;10.20;;
36137;SDS011;67787;50.074;21.904;2023-03-23T18:09:34;20.30;;;9.30;;
36137;SDS011;67787;50.074;21.904;2023-03-23T18:12:12;20.80;;;8.60;;
36137;SDS011;67787;50.074;21.904;2023-03-23T18:14:42;21.10;;;8.40;;
36137;SDS011;67787;50.074;21.904;2023-03-23T18:17:23;20.60;;;8.60;;
36137;SDS011;67787;50.074;21.904;2023-03-23T18:19:54;22.00;;;8.70;;
36137;SDS011;67787;50.074;21.904;2023-03-23T18:22:24;20.00;;;8.20;;
36137;SDS011;67787;50.074;21.904;2023-03-23T18:25:10;22.20;;;8.50;;
36137;SDS011;67787;50.074;21.904;2023-03-23T18:28:01;20.10;;;8.50;;
36137;SDS011;67787;50.074;21.904;2023-03-23T18:31:31;19.30;;;8.20;;
36137;SDS011;67787;50.074;21.904;2023-03-23T18:35:01;21.30;;;8.90;;
36137;SDS011;67787;50.074;21.904;2023-03-23T18:38:46;25.70;;;9.10;;
36137;SDS011;67787;50.074;21.904;2023-03-23T18:41:37;25.00;;;10.10;;
36137;SDS011;67787;50.074;21.904;2023-03-23T18:48:02;20.10;;;8.90;;
36137;SDS011;67787;50.074;21.904;2023-03-23T18:50:34;19.90;;;8.60;;
36137;SDS011;67787;50.074;21.904;2023-03-23T18:53:01;18.80;;;7.30;;
36137;SDS011;67787;50.074;21.904;2023-03-23T18:55:28;18.60;;;7.50;;
36137;SDS011;67787;50.074;21.904;2023-03-23T18:57:54;17.60;;;7.30;;
36137;SDS011;67787;50.074;21.904;2023-03-23T19:00:23;20.40;;;7.80;;